Time;durP1;ratioP1;P1;durP2;ratioP2;P2;SDS_P1;SDS_P2;PMS_P1;PMS_P2;Temp;Humidity;BMP_temperature;BMP_pressure;BME280_temperature;BME280_humidity;BME280_pressure;Samples;Min_cycle;Max_cycle;Signal;HPM_P1;HPM_P2
2021/01/21 05:10:16;;;;;;;3.20;0.97;;;;;;;;;;4241775;27;20369;-63
2021/01/21 05:12:38;;;;;;;2.42;0.73;;;;;;;;;;4241054;28;20063;-63
2021/01/21 05:15:18;;;;;;;3.70;1.02;;;;;;;;;;4242225;28;20782;-62
2021/01/21 05:18:03;;;;;;;2.65;0.65;;;;;;;;;;4210057;27;20108;-64
2021/01/21 05:20:49;;;;;;;10.77;1.08;;;;;;;;;;4231912;28;20414;-66
2021/01/21 05:23:29;;;;;;;5.68;0.98;;;;;;;;;;4224475;28;20106;-66
2021/01/21 05:26:01;;;;;;;4.55;1.10;;;;;;;;;;4224486;28;20678;-66
2021/01/21 05:28:37;;;;;;;4.82;0.88;;;;;;;;;;4224899;28;20124;-66
2021/01/21 05:31:10;;;;;;;;;;;;;;;;;;4225695;28;20121;-66
2021/01/21 05:33:39;;;;;;;5.00;0.70;;;;;;;;;;4225184;28;19938;-66
2021/01/21 05:36:07;;;;;;;4.88;0.88;;;;;;;;;;4225986;28;20104;-66
2021/01/21 05:38:32;;;;;;;4.93;0.85;;;;;;;;;;4225200;28;20563;-66
2021/01/21 05:41:17;;;;;;;6.35;1.10;;;;;;;;;;4225936;28;20077;-66
2021/01/21 05:43:58;;;;;;;7.65;1.23;;;;;;;;;;4226123;28;20098;-65
2021/01/21 05:46:24;;;;;;;3.85;0.88;;;;;;;;;;4224774;28;20059;-65
2021/01/21 05:48:47;;;;;;;5.82;1.05;;;;;;;;;;4224850;28;20425;-65
2021/01/21 05:51:08;;;;;;;7.97;1.10;;;;;;;;;;4224905;28;20075;-66
2021/01/21 05:53:32;;;;;;;5.45;0.98;;;;;;;;;;4225920;28;20063;-65
2021/01/21 05:55:58;;;;;;;5.88;1.30;;;;;;;;;;4224679;28;20093;-65
2021/01/21 05:58:36;;;;;;;4.63;1.10;;;;;;;;;;4224598;28;20063;-65
2021/01/21 06:00:59;;;;;;;5.15;1.00;;;;;;;;;;4225045;28;20141;-65
2021/01/21 06:03:34;;;;;;;6.22;1.02;;;;;;;;;;4225222;28;20230;-67
2021/01/21 06:05:58;;;;;;;4.95;1.27;;;;;;;;;;4225253;28;20114;-65
2021/01/21 06:08:22;;;;;;;6.15;1.10;;;;;;;;;;4241601;28;20062;-66
2021/01/21 06:10:44;;;;;;;2.67;0.80;;;;;;;;;;4241444;28;20100;-62
2021/01/21 06:13:07;;;;;;;1.85;0.60;;;;;;;;;;4242620;28;20457;-62
2021/01/21 06:15:28;;;;;;;;;;;;;;;;;;4241902;28;20093;-62
2021/01/21 06:17:50;;;;;;;2.38;0.80;;;;;;;;;;4242744;28;19930;-62
2021/01/21 06:20:31;;;;;;;2.72;0.70;;;;;;;;;;4236314;28;20139;-62
2021/01/21 06:23:05;;;;;;;1.58;1.10;;;;;;;;;;4230219;28;20062;-62
2021/01/21 06:25:32;;;;;;;3.65;0.68;;;;;;;;;;4229000;28;20236;-62
2021/01/21 06:27:53;;;;;;;1.75;0.60;;;;;;;;;;4227732;28;20081;-62
2021/01/21 06:30:16;;;;;;;2.30;0.80;;;;;;;;;;4220489;28;20173;-62
2021/01/21 06:32:49;;;;;;;2.65;0.65;;;;;;;;;;4230525;28;20066;-62
2021/01/21 06:35:12;;;;;;;1.60;0.80;;;;;;;;;;4230400;28;20148;-62
2021/01/21 06:37:36;;;;;;;3.22;0.80;;;;;;;;;;4230656;28;20054;-62
2021/01/21 06:40:05;;;;;;;2.50;0.73;;;;;;;;;;4229325;28;20111;-62
2021/01/21 06:42:29;;;;;;;2.33;0.90;;;;;;;;;;4229361;28;20082;-62
2021/01/21 06:44:53;;;;;;;0.85;0.45;;;;;;;;;;4230998;28;20425;-62
2021/01/21 06:47:13;;;;;;;;;;;;;;;;;;4230987;28;20062;-62
2021/01/21 06:49:38;;;;;;;0.85;0.50;;;;;;;;;;4229815;28;19930;-62
2021/01/21 06:52:01;;;;;;;1.52;0.60;;;;;;;;;;4229644;28;20062;-62
2021/01/21 06:54:25;;;;;;;1.98;0.65;;;;;;;;;;4229653;28;20121;-62
2021/01/21 06:56:45;;;;;;;2.30;0.90;;;;;;;;;;4230845;28;20063;-62
2021/01/21 06:59:09;;;;;;;2.20;0.60;;;;;;;;;;4230731;28;20112;-62
2021/01/21 07:01:46;;;;;;;2.35;0.55;;;;;;;;;;4229570;28;20135;-62
2021/01/21 07:04:25;;;;;;;2.45;0.70;;;;;;;;;;4230850;28;20054;-61
2021/01/21 07:07:15;;;;;;;2.53;0.90;;;;;;;;;;4229478;28;20100;-61
2021/01/21 07:09:38;;;;;;;1.80;0.70;;;;;;;;;;4230417;28;20061;-62
2021/01/21 07:12:01;;;;;;;1.88;0.60;;;;;;;;;;4229954;28;20059;-61
2021/01/21 07:14:25;;;;;;;1.67;0.70;;;;;;;;;;4229227;28;20122;-62
2021/01/21 07:16:49;;;;;;;2.90;0.95;;;;;;;;;;4229184;28;20171;-61
2021/01/21 07:19:13;;;;;;;3.95;0.68;;;;;;;;;;4230339;28;20513;-61
2021/01/21 07:21:34;;;;;;;1.42;0.60;;;;;;;;;;4230234;28;20062;-62
2021/01/21 07:23:59;;;;;;;2.17;0.90;;;;;;;;;;4229934;28;20500;-63
2021/01/21 07:26:40;;;;;;;2.67;0.50;;;;;;;;;;4230307;28;20085;-63
2021/01/21 07:29:09;;;;;;;1.58;0.50;;;;;;;;;;4229950;28;20059;-63
2021/01/21 07:31:31;;;;;;;7.40;0.80;;;;;;;;;;4228543;28;20149;-61
2021/01/21 07:34:23;;;;;;;14.98;1.35;;;;;;;;;;4228303;28;20062;-60
2021/01/21 07:36:44;;;;;;;7.63;0.82;;;;;;;;;;4229865;28;20494;-60
2021/01/21 07:39:06;;;;;;;5.43;0.70;;;;;;;;;;4229870;28;20092;-60
2021/01/21 07:41:53;;;;;;;3.38;0.70;;;;;;;;;;4228581;28;20063;-60
2021/01/21 07:44:13;;;;;;;5.35;0.50;;;;;;;;;;4228044;28;20632;-60
2021/01/21 07:46:34;;;;;;;3.80;0.65;;;;;;;;;;4228200;28;20136;-60
2021/01/21 07:49:22;;;;;;;3.42;0.40;;;;;;;;;;4229193;28;20101;-61
2021/01/21 07:51:42;;;;;;;1.90;0.45;;;;;;;;;;4228986;28;20073;-60
2021/01/21 07:54:05;;;;;;;2.70;0.50;;;;;;;;;;4229084;28;20059;-60
2021/01/21 07:56:28;;;;;;;2.30;0.40;;;;;;;;;;4229371;28;20058;-60
2021/01/21 07:59:00;;;;;;;1.55;0.40;;;;;;;;;;4227548;28;20098;-60
2021/01/21 08:01:23;;;;;;;3.08;0.40;;;;;;;;;;4228604;28;20414;-60
2021/01/21 08:03:48;;;;;;;1.15;0.30;;;;;;;;;;4227138;28;20063;-60
2021/01/21 08:06:13;;;;;;;2.35;0.30;;;;;;;;;;4228713;28;20055;-60
2021/01/21 08:08:36;;;;;;;0.73;0.40;;;;;;;;;;4211903;28;20063;-60
2021/01/21 08:11:05;;;;;;;0.43;0.20;;;;;;;;;;4212061;28;20090;-60
2021/01/21 08:13:28;;;;;;;0.88;0.32;;;;;;;;;;4212736;28;20066;-60
2021/01/21 08:15:53;;;;;;;2.22;0.25;;;;;;;;;;4212656;28;20090;-60
2021/01/21 08:18:16;;;;;;;0.65;0.20;;;;;;;;;;4228629;28;20067;-60
2021/01/21 08:20:37;;;;;;;2.83;0.40;;;;;;;;;;4229551;28;20059;-60
2021/01/21 08:23:00;;;;;;;0.82;0.20;;;;;;;;;;4224916;28;20065;-60
2021/01/21 08:25:26;;;;;;;0.65;0.20;;;;;;;;;;4212364;28;20151;-60
2021/01/21 08:27:52;;;;;;;0.70;0.20;;;;;;;;;;4212414;28;20102;-60
2021/01/21 08:30:17;;;;;;;0.75;0.30;;;;;;;;;;4212111;28;20059;-60
2021/01/21 08:32:40;;;;;;;0.50;0.20;;;;;;;;;;4210867;28;20193;-60
2021/01/21 08:35:01;;;;;;;0.63;0.20;;;;;;;;;;4212137;28;20128;-60
2021/01/21 08:37:22;;;;;;;0.75;0.25;;;;;;;;;;4227267;28;20062;-60
2021/01/21 08:39:43;;;;;;;0.30;0.10;;;;;;;;;;4229076;28;20063;-60
2021/01/21 08:42:04;;;;;;;0.70;0.15;;;;;;;;;;4228592;28;20051;-60
2021/01/21 08:44:29;;;;;;;0.30;0.10;;;;;;;;;;4227550;28;20894;-60
2021/01/21 08:46:57;;;;;;;0.47;0.20;;;;;;;;;;4228885;28;20555;-60
2021/01/21 08:49:20;;;;;;;1.08;0.10;;;;;;;;;;4228584;28;20058;-60
2021/01/21 08:51:44;;;;;;;0.82;0.20;;;;;;;;;;4228739;28;20066;-60
2021/01/21 08:54:16;;;;;;;0.20;0.15;;;;;;;;;;4228771;28;20139;-60
2021/01/21 08:56:37;;;;;;;0.60;0.10;;;;;;;;;;4228809;28;20090;-60
2021/01/21 08:58:58;;;;;;;0.90;0.20;;;;;;;;;;4228567;28;20054;-60
2021/01/21 09:01:19;;;;;;;0.52;0.10;;;;;;;;;;4227752;28;20063;-60
2021/01/21 09:03:47;;;;;;;0.30;0.20;;;;;;;;;;4228600;28;20059;-60
2021/01/21 09:06:08;;;;;;;0.68;0.13;;;;;;;;;;4228627;28;20421;-60
2021/01/21 09:08:29;;;;;;;0.30;0.10;;;;;;;;;;4227422;28;20128;-60
2021/01/21 09:10:56;;;;;;;1.00;0.10;;;;;;;;;;4228662;28;20059;-60
2021/01/21 09:13:20;;;;;;;1.65;0.17;;;;;;;;;;4228395;28;20058;-61
2021/01/21 09:15:58;;;;;;;0.30;0.17;;;;;;;;;;4228611;28;20510;-61
2021/01/21 09:18:22;;;;;;;0.60;0.28;;;;;;;;;;4228681;28;20051;-61
2021/01/21 09:20:43;;;;;;;0.40;0.20;;;;;;;;;;4228603;28;20089;-61
2021/01/21 09:23:14;;;;;;;0.32;0.20;;;;;;;;;;4228306;28;20108;-61
2021/01/21 09:25:34;;;;;;;1.08;0.20;;;;;;;;;;4228346;28;20770;-63
2021/01/21 09:27:56;;;;;;;1.67;0.30;;;;;;;;;;4228400;28;20132;-61
2021/01/21 09:30:21;;;;;;;0.90;0.20;;;;;;;;;;4228359;28;20086;-60
2021/01/21 09:32:43;;;;;;;0.50;0.20;;;;;;;;;;4228347;28;20670;-61
2021/01/21 09:35:07;;;;;;;0.77;0.20;;;;;;;;;;4228588;28;20054;-60
2021/01/21 09:37:29;;;;;;;1.08;0.40;;;;;;;;;;4228474;28;20089;-61
2021/01/21 09:39:53;;;;;;;1.42;0.22;;;;;;;;;;4228548;28;20058;-60
2021/01/21 09:42:17;;;;;;;0.63;0.20;;;;;;;;;;4227433;28;20062;-60
2021/01/21 09:44:38;;;;;;;0.45;0.20;;;;;;;;;;4228567;28;20058;-60
2021/01/21 09:47:01;;;;;;;1.20;0.20;;;;;;;;;;4228636;28;20098;-60
2021/01/21 09:49:24;;;;;;;0.90;0.20;;;;;;;;;;4228632;28;20056;-60
2021/01/21 09:51:46;;;;;;;1.17;0.20;;;;;;;;;;4228720;28;20464;-60
2021/01/21 09:54:07;;;;;;;0.73;0.20;;;;;;;;;;4228459;28;20058;-60
2021/01/21 09:56:30;;;;;;;0.60;0.17;;;;;;;;;;4230856;28;20078;-60
2021/01/21 09:58:51;;;;;;;0.77;0.30;;;;;;;;;;4230839;28;20129;-60
2021/01/21 10:01:14;;;;;;;0.75;0.20;;;;;;;;;;4232036;28;20058;-60
2021/01/21 10:03:35;;;;;;;1.23;0.22;;;;;;;;;;4231528;28;20100;-60
2021/01/21 10:05:56;;;;;;;0.90;0.20;;;;;;;;;;4230503;28;20054;-60
2021/01/21 10:08:17;;;;;;;0.45;0.20;;;;;;;;;;4231374;28;20708;-61
2021/01/21 10:10:41;;;;;;;2.00;0.40;;;;;;;;;;4231253;28;20054;-60
2021/01/21 10:13:04;;;;;;;0.40;0.20;;;;;;;;;;4230269;28;20108;-60
2021/01/21 10:15:25;;;;;;;0.20;0.13;;;;;;;;;;4231590;28;20062;-60
2021/01/21 10:17:48;;;;;;;0.30;0.10;;;;;;;;;;4231491;28;20062;-60
2021/01/21 10:20:13;;;;;;;0.20;0.10;;;;;;;;;;4230789;28;20426;-60
2021/01/21 10:22:37;;;;;;;0.88;0.40;;;;;;;;;;4231543;28;20062;-60
2021/01/21 10:24:58;;;;;;;1.37;0.20;;;;;;;;;;4230168;28;20431;-60
2021/01/21 10:27:21;;;;;;;1.20;0.30;;;;;;;;;;4231451;28;20285;-60
2021/01/21 10:29:44;;;;;;;0.22;0.10;;;;;;;;;;4231161;28;20046;-60
2021/01/21 10:32:05;;;;;;;0.30;0.10;;;;;;;;;;4230273;28;20066;-60
2021/01/21 10:34:26;;;;;;;1.50;0.22;;;;;;;;;;4229932;28;20084;-61
2021/01/21 10:36:49;;;;;;;0.40;0.20;;;;;;;;;;4231072;28;20587;-60
2021/01/21 10:39:12;;;;;;;0.80;0.20;;;;;;;;;;4231040;28;20058;-60
2021/01/21 10:41:34;;;;;;;1.13;0.15;;;;;;;;;;4231103;28;20413;-60
2021/01/21 10:43:57;;;;;;;1.08;0.30;;;;;;;;;;4230397;28;20066;-60
2021/01/21 10:46:18;;;;;;;0.10;0.10;;;;;;;;;;4231074;28;20148;-60
2021/01/21 10:48:38;;;;;;;0.35;0.20;;;;;;;;;;4231041;28;20520;-60
2021/01/21 10:50:59;;;;;;;0.35;0.20;;;;;;;;;;4230866;28;20050;-60
2021/01/21 10:53:20;;;;;;;1.15;0.15;;;;;;;;;;4230998;28;20097;-60
2021/01/21 10:55:40;;;;;;;1.20;0.22;;;;;;;;;;4229536;28;20085;-60
2021/01/21 10:58:06;;;;;;;0.20;0.10;;;;;;;;;;4230834;28;20108;-60
2021/01/21 11:00:28;;;;;;;0.20;0.17;;;;;;;;;;4230819;28;20168;-60
2021/01/21 11:02:49;;;;;;;0.20;0.10;;;;;;;;;;4230388;28;20066;-60
2021/01/21 11:05:14;;;;;;;1.05;0.20;;;;;;;;;;4230317;28;20098;-60
2021/01/21 11:07:35;;;;;;;0.10;0.10;;;;;;;;;;4230234;28;20065;-60
2021/01/21 11:09:58;;;;;;;0.30;0.20;;;;;;;;;;4230300;28;20059;-60
2021/01/21 11:12:19;;;;;;;0.20;0.10;;;;;;;;;;4230380;28;20116;-60
2021/01/21 11:14:46;;;;;;;0.60;0.20;;;;;;;;;;4230240;28;20050;-60
2021/01/21 11:17:09;;;;;;;0.10;0.10;;;;;;;;;;4230446;28;20051;-60
2021/01/21 11:19:32;;;;;;;0.40;0.20;;;;;;;;;;4230259;28;20062;-60
2021/01/21 11:21:53;;;;;;;0.93;0.30;;;;;;;;;;4230162;28;20063;-60
2021/01/21 11:24:14;;;;;;;;;;;;;;;;;;4228322;28;20105;-60
2021/01/21 11:26:34;;;;;;;0.80;0.35;;;;;;;;;;4229263;28;20036;-60
2021/01/21 11:28:55;;;;;;;0.43;0.25;;;;;;;;;;4230182;28;20131;-60
2021/01/21 11:31:18;;;;;;;0.98;0.20;;;;;;;;;;4227217;28;20464;-62
2021/01/21 11:33:43;;;;;;;1.17;0.50;;;;;;;;;;4220850;28;20535;-63
2021/01/21 11:36:07;;;;;;;0.98;0.20;;;;;;;;;;4220613;28;20127;-65
2021/01/21 11:38:30;;;;;;;0.40;0.20;;;;;;;;;;4220841;28;20116;-61
2021/01/21 11:40:51;;;;;;;0.82;0.20;;;;;;;;;;4217771;28;20325;-61
2021/01/21 11:43:12;;;;;;;1.95;0.20;;;;;;;;;;4217751;28;20077;-67
2021/01/21 11:45:33;;;;;;;0.68;0.22;;;;;;;;;;4227529;28;20058;-62
2021/01/21 11:47:55;;;;;;;0.73;0.22;;;;;;;;;;4227337;28;20109;-62
2021/01/21 11:50:16;;;;;;;;;;;;;;;;;;4220504;28;20054;-62
2021/01/21 11:52:37;;;;;;;0.65;0.20;;;;;;;;;;4216601;28;19992;-61
2021/01/21 11:54:58;;;;;;;1.85;0.20;;;;;;;;;;4218995;28;20521;-59
2021/01/21 11:57:19;;;;;;;1.23;0.40;;;;;;;;;;4215778;28;20055;-60
2021/01/21 11:59:39;;;;;;;0.95;0.30;;;;;;;;;;4216422;28;20117;-59
2021/01/21 12:02:03;;;;;;;1.15;0.30;;;;;;;;;;4225784;28;20140;-60
2021/01/21 12:04:25;;;;;;;1.63;0.20;;;;;;;;;;4210571;28;20445;-60
2021/01/21 12:06:45;;;;;;;1.15;0.20;;;;;;;;;;4220802;28;20058;-60
2021/01/21 12:09:07;;;;;;;0.40;0.20;;;;;;;;;;4224487;28;20120;-61
2021/01/21 12:11:28;;;;;;;2.50;0.30;;;;;;;;;;4220767;28;20054;-62
2021/01/21 12:13:48;;;;;;;0.57;0.30;;;;;;;;;;4217079;28;20740;-62
2021/01/21 12:16:12;;;;;;;1.23;0.30;;;;;;;;;;4226141;28;20062;-64
2021/01/21 12:18:33;;;;;;;;;;;;;;;;;;4227651;28;20054;-60
2021/01/21 12:20:55;;;;;;;0.82;0.30;;;;;;;;;;4226715;28;19973;-62
2021/01/21 12:23:18;;;;;;;0.40;0.20;;;;;;;;;;4215657;28;20088;-61
2021/01/21 12:25:39;;;;;;;1.40;0.10;;;;;;;;;;4213268;28;20636;-61
2021/01/21 12:28:03;;;;;;;2.10;0.30;;;;;;;;;;4214340;28;20051;-63
2021/01/21 12:30:26;;;;;;;1.48;0.30;;;;;;;;;;4222909;28;20055;-64
2021/01/21 12:32:50;;;;;;;1.33;0.20;;;;;;;;;;4217926;28;20414;-63
2021/01/21 12:35:12;;;;;;;0.82;0.20;;;;;;;;;;4221411;28;20092;-61
2021/01/21 12:37:37;;;;;;;0.70;0.28;;;;;;;;;;4218963;28;20061;-64
2021/01/21 12:39:57;;;;;;;1.52;0.17;;;;;;;;;;4218296;28;20528;-61
2021/01/21 12:42:18;;;;;;;2.80;0.50;;;;;;;;;;4219700;28;20090;-61
2021/01/21 12:44:40;;;;;;;1.30;0.17;;;;;;;;;;4216481;28;20050;-61
2021/01/21 12:47:01;;;;;;;1.17;0.40;;;;;;;;;;4217542;28;20093;-64
2021/01/21 12:49:21;;;;;;;2.38;0.30;;;;;;;;;;4212534;28;20055;-62
2021/01/21 12:51:45;;;;;;;1.48;0.30;;;;;;;;;;4186401;28;20055;-62
2021/01/21 12:54:07;;;;;;;0.73;0.20;;;;;;;;;;4175849;28;20473;-63
2021/01/21 12:56:28;;;;;;;1.17;0.35;;;;;;;;;;4176956;28;20102;-65
2021/01/21 12:58:51;;;;;;;2.47;0.60;;;;;;;;;;4177485;28;20087;-68
2021/01/21 13:01:12;;;;;;;1.38;0.20;;;;;;;;;;4176482;28;20052;-62
2021/01/21 13:03:33;;;;;;;1.65;0.20;;;;;;;;;;4172306;28;20111;-64
2021/01/21 13:05:53;;;;;;;2.40;0.30;;;;;;;;;;4173375;28;20091;-63
2021/01/21 13:08:14;;;;;;;2.10;0.30;;;;;;;;;;4176709;28;20662;-68
2021/01/21 13:10:38;;;;;;;2.60;0.30;;;;;;;;;;4160521;28;20084;-60
2021/01/21 13:12:59;;;;;;;3.05;0.68;;;;;;;;;;4176255;28;20138;-63
2021/01/21 13:15:19;;;;;;;3.05;0.20;;;;;;;;;;4175756;28;20079;-61
2021/01/21 13:17:40;;;;;;;1.65;0.30;;;;;;;;;;4176335;28;20156;-60
2021/01/21 13:20:01;;;;;;;1.40;0.20;;;;;;;;;;4176162;28;20067;-59
2021/01/21 13:22:22;;;;;;;;;;;;;;;;;;4177639;28;20649;-67
2021/01/21 13:24:43;;;;;;;0.82;0.20;;;;;;;;;;4168178;28;19967;-66
2021/01/21 13:27:05;;;;;;;1.33;0.20;;;;;;;;;;4176680;28;20875;-70
2021/01/21 13:29:26;;;;;;;2.33;0.30;;;;;;;;;;4175578;28;20107;-63
2021/01/21 13:31:49;;;;;;;2.13;0.30;;;;;;;;;;4178386;28;20060;-62
2021/01/21 13:34:13;;;;;;;3.00;0.40;;;;;;;;;;4178708;28;20087;-61
2021/01/21 13:36:35;;;;;;;0.65;0.30;;;;;;;;;;4179903;28;20063;-64
2021/01/21 13:38:55;;;;;;;2.30;0.35;;;;;;;;;;4179088;28;20064;-65
2021/01/21 13:41:16;;;;;;;5.20;0.30;;;;;;;;;;4177465;28;20075;-64
2021/01/21 13:43:38;;;;;;;1.30;0.22;;;;;;;;;;4174053;28;20059;-61
2021/01/21 13:45:59;;;;;;;2.33;0.28;;;;;;;;;;4176946;28;20153;-61
2021/01/21 13:48:19;;;;;;;0.93;0.20;;;;;;;;;;4178276;28;20059;-59
2021/01/21 13:50:41;;;;;;;1.85;0.30;;;;;;;;;;4178067;28;20047;-61
2021/01/21 13:53:02;;;;;;;2.95;0.30;;;;;;;;;;4179254;28;20726;-62
2021/01/21 13:55:23;;;;;;;2.25;0.30;;;;;;;;;;4174504;28;20071;-61
2021/01/21 13:57:44;;;;;;;0.77;0.20;;;;;;;;;;4170832;28;20114;-59
2021/01/21 14:00:07;;;;;;;1.00;0.20;;;;;;;;;;4179325;28;20902;-60
2021/01/21 14:02:28;;;;;;;1.05;0.17;;;;;;;;;;4177202;28;20099;-60
2021/01/21 14:04:49;;;;;;;0.77;0.20;;;;;;;;;;4177347;28;20056;-60
2021/01/21 14:07:10;;;;;;;1.42;0.20;;;;;;;;;;4175969;28;20118;-64
2021/01/21 14:09:31;;;;;;;1.90;0.35;;;;;;;;;;4175909;28;20138;-63
2021/01/21 14:11:52;;;;;;;0.45;0.20;;;;;;;;;;4175616;28;20064;-62
2021/01/21 14:14:16;;;;;;;1.23;0.20;;;;;;;;;;4177476;28;20052;-62
2021/01/21 14:16:37;;;;;;;2.40;0.35;;;;;;;;;;4173111;28;20068;-60
2021/01/21 14:18:58;;;;;;;1.17;1.08;;;;;;;;;;4176679;28;20162;-61
2021/01/21 14:21:18;;;;;;;0.98;0.20;;;;;;;;;;4177926;28;20064;-62
2021/01/21 14:23:39;;;;;;;0.85;0.28;;;;;;;;;;4171419;28;20095;-62
2021/01/21 14:26:02;;;;;;;1.70;0.20;;;;;;;;;;4173462;28;20591;-60
2021/01/21 14:28:23;;;;;;;2.05;0.40;;;;;;;;;;4176458;28;20060;-61
2021/01/21 14:30:44;;;;;;;1.48;0.20;;;;;;;;;;4178052;28;20123;-63
2021/01/21 14:33:06;;;;;;;1.25;0.30;;;;;;;;;;4178213;28;20722;-60
2021/01/21 14:35:26;;;;;;;1.10;0.20;;;;;;;;;;4178888;28;20454;-63
2021/01/21 14:37:47;;;;;;;0.68;0.20;;;;;;;;;;4178127;28;20056;-61
2021/01/21 14:40:10;;;;;;;0.50;0.17;;;;;;;;;;4178959;28;20056;-62
2021/01/21 14:42:30;;;;;;;2.00;0.32;;;;;;;;;;4178508;28;20071;-61
2021/01/21 14:44:54;;;;;;;1.65;0.40;;;;;;;;;;4179028;28;20128;-61
2021/01/21 14:47:14;;;;;;;3.20;0.32;;;;;;;;;;4177358;28;20079;-62
2021/01/21 14:49:39;;;;;;;1.80;0.30;;;;;;;;;;4176299;28;20102;-60
2021/01/21 14:52:02;;;;;;;2.45;0.28;;;;;;;;;;4176725;28;20052;-62
2021/01/21 14:54:23;;;;;;;2.00;0.15;;;;;;;;;;4176261;28;20118;-62
2021/01/21 14:56:46;;;;;;;1.75;0.22;;;;;;;;;;4177102;28;20114;-65
2021/01/21 14:59:07;;;;;;;0.85;0.30;;;;;;;;;;4175833;28;20641;-60
2021/01/21 15:01:27;;;;;;;1.05;0.30;;;;;;;;;;4176796;28;20137;-60
2021/01/21 15:03:49;;;;;;;1.98;0.30;;;;;;;;;;4176640;28;20087;-61
2021/01/21 15:06:11;;;;;;;1.02;0.38;;;;;;;;;;4176347;28;20056;-61
2021/01/21 15:08:33;;;;;;;2.08;0.68;;;;;;;;;;4176518;28;21591;-61
2021/01/21 15:10:56;;;;;;;1.40;0.20;;;;;;;;;;4176948;28;20052;-62
2021/01/21 15:13:16;;;;;;;1.27;0.30;;;;;;;;;;4177785;28;20171;-61
2021/01/21 15:15:38;;;;;;;0.80;0.20;;;;;;;;;;4172040;28;20079;-61
2021/01/21 15:17:59;;;;;;;0.63;0.20;;;;;;;;;;4175560;28;20535;-61
2021/01/21 15:20:20;;;;;;;1.48;0.20;;;;;;;;;;4176381;28;20051;-62
2021/01/21 15:22:41;;;;;;;1.10;0.22;;;;;;;;;;4174350;28;20064;-63
2021/01/21 15:25:01;;;;;;;3.58;0.68;;;;;;;;;;4175035;28;20060;-62
2021/01/21 15:27:22;;;;;;;0.82;0.20;;;;;;;;;;4170743;28;20096;-62
2021/01/21 15:29:43;;;;;;;0.80;0.20;;;;;;;;;;4176097;28;20060;-61
2021/01/21 15:32:05;;;;;;;;;;;;;;;;;;4176205;28;20056;-61
2021/01/21 15:34:25;;;;;;;1.02;0.20;;;;;;;;;;4176652;28;20020;-61
2021/01/21 15:36:47;;;;;;;0.73;0.17;;;;;;;;;;4175620;28;20059;-64
2021/01/21 15:39:09;;;;;;;2.03;0.30;;;;;;;;;;4177454;28;20503;-63
2021/01/21 15:41:33;;;;;;;2.53;0.40;;;;;;;;;;4175662;28;20052;-61
2021/01/21 15:43:57;;;;;;;1.80;0.32;;;;;;;;;;4176805;28;20067;-61
2021/01/21 15:46:21;;;;;;;5.38;1.17;;;;;;;;;;4177193;28;20056;-63
2021/01/21 15:48:41;;;;;;;0.80;0.10;;;;;;;;;;4176646;28;20060;-61
2021/01/21 15:51:02;;;;;;;0.47;0.45;;;;;;;;;;4177998;28;20102;-61
2021/01/21 15:53:25;;;;;;;0.85;0.00;;;;;;;;;;4176309;28;20135;-59
2021/01/21 15:55:47;;;;;;;0.08;0.00;;;;;;;;;;4176786;28;20055;-61
2021/01/21 15:58:10;;;;;;;1.35;0.08;;;;;;;;;;4175744;28;20060;-61
2021/01/21 16:00:31;;;;;;;0.10;0.10;;;;;;;;;;4175275;28;20122;-60
2021/01/21 16:02:55;;;;;;;1.17;0.10;;;;;;;;;;4174084;28;20162;-60
2021/01/21 16:05:15;;;;;;;0.43;0.10;;;;;;;;;;4175339;28;20098;-60
2021/01/21 16:07:36;;;;;;;0.10;0.00;;;;;;;;;;4176179;28;20055;-59
2021/01/21 16:10:00;;;;;;;0.00;0.00;;;;;;;;;;4168092;28;20542;-60
2021/01/21 16:12:21;;;;;;;0.10;0.10;;;;;;;;;;4173515;28;20052;-60
2021/01/21 16:14:42;;;;;;;0.98;0.10;;;;;;;;;;4177540;28;20055;-59
2021/01/21 16:17:03;;;;;;;0.20;0.20;;;;;;;;;;4174775;28;20068;-59
2021/01/21 16:19:24;;;;;;;0.08;0.08;;;;;;;;;;4174777;28;20078;-59
2021/01/21 16:21:47;;;;;;;0.00;0.00;;;;;;;;;;4176395;28;20487;-59
2021/01/21 16:24:10;;;;;;;0.10;0.10;;;;;;;;;;4175404;28;20055;-60
2021/01/21 16:26:33;;;;;;;0.03;0.03;;;;;;;;;;4175820;28;20130;-59
2021/01/21 16:28:54;;;;;;;0.30;0.30;;;;;;;;;;4175385;28;20136;-60
2021/01/21 16:31:17;;;;;;;0.05;0.05;;;;;;;;;;4177362;28;20083;-60
2021/01/21 16:33:38;;;;;;;0.30;0.00;;;;;;;;;;4176514;28;20219;-61
2021/01/21 16:35:59;;;;;;;0.43;0.00;;;;;;;;;;4177301;28;20141;-61
2021/01/21 16:38:20;;;;;;;0.17;0.17;;;;;;;;;;4177379;28;20759;-61
2021/01/21 16:40:44;;;;;;;2.38;0.55;;;;;;;;;;4177184;28;20487;-60
2021/01/21 16:43:05;;;;;;;0.10;0.10;;;;;;;;;;4176369;28;20059;-60
2021/01/21 16:45:26;;;;;;;0.05;0.05;;;;;;;;;;4175476;28;20068;-59
2021/01/21 16:47:48;;;;;;;0.00;0.00;;;;;;;;;;4175171;28;20142;-60
2021/01/21 16:50:09;;;;;;;0.10;0.10;;;;;;;;;;4176466;28;20549;-60
2021/01/21 16:52:32;;;;;;;0.38;0.03;;;;;;;;;;4177320;28;20468;-62
2021/01/21 16:54:55;;;;;;;0.30;0.20;;;;;;;;;;4176100;28;20702;-60
2021/01/21 16:57:18;;;;;;;0.30;0.10;;;;;;;;;;4175400;28;20063;-59
2021/01/21 16:59:40;;;;;;;0.40;0.10;;;;;;;;;;4173021;28;20099;-59
2021/01/21 17:02:03;;;;;;;0.10;0.10;;;;;;;;;;4175033;28;20055;-60
2021/01/21 17:04:23;;;;;;;0.20;0.10;;;;;;;;;;4174181;28;20060;-61
2021/01/21 17:06:44;;;;;;;0.05;0.00;;;;;;;;;;4177553;28;20060;-59
2021/01/21 17:09:07;;;;;;;0.20;0.10;;;;;;;;;;4177557;28;20068;-59
2021/01/21 17:11:31;;;;;;;0.50;0.10;;;;;;;;;;4171387;28;20059;-59
2021/01/21 17:13:52;;;;;;;1.42;0.28;;;;;;;;;;4176139;28;20522;-60
2021/01/21 17:16:15;;;;;;;0.57;0.25;;;;;;;;;;4168650;28;20454;-60
2021/01/21 17:18:36;;;;;;;0.77;0.25;;;;;;;;;;4163245;28;20568;-60
2021/01/21 17:20:57;;;;;;;4.20;0.10;;;;;;;;;;4175382;28;20055;-60
2021/01/21 17:23:18;;;;;;;0.88;0.13;;;;;;;;;;4173208;28;20052;-60
2021/01/21 17:25:41;;;;;;;0.28;0.20;;;;;;;;;;4176798;28;20060;-61
2021/01/21 17:28:05;;;;;;;2.67;0.60;;;;;;;;;;4176735;28;20523;-60
2021/01/21 17:30:26;;;;;;;0.40;0.10;;;;;;;;;;4163868;28;20100;-59
2021/01/21 17:32:46;;;;;;;0.77;0.10;;;;;;;;;;4169789;28;20511;-61
2021/01/21 17:35:09;;;;;;;0.10;0.10;;;;;;;;;;4176887;28;20060;-62
2021/01/21 17:37:30;;;;;;;3.50;0.10;;;;;;;;;;4174882;28;20428;-61
2021/01/21 17:39:50;;;;;;;0.90;0.52;;;;;;;;;;4176880;28;20068;-59
2021/01/21 17:42:11;;;;;;;0.30;0.10;;;;;;;;;;4176746;28;20056;-59
2021/01/21 17:44:32;;;;;;;0.40;0.10;;;;;;;;;;4175440;28;20585;-60
2021/01/21 17:46:56;;;;;;;0.80;0.10;;;;;;;;;;4176610;28;20522;-62
2021/01/21 17:49:16;;;;;;;2.88;0.20;;;;;;;;;;4176894;28;20095;-59
2021/01/21 17:51:38;;;;;;;0.10;0.10;;;;;;;;;;4175786;28;20598;-60
2021/01/21 17:53:58;;;;;;;0.20;0.13;;;;;;;;;;4175212;28;20088;-60
2021/01/21 17:56:22;;;;;;;2.40;0.45;;;;;;;;;;4176196;28;20759;-60
2021/01/21 17:58:43;;;;;;;2.47;0.30;;;;;;;;;;4173817;28;20128;-61
2021/01/21 18:01:06;;;;;;;0.85;0.35;;;;;;;;;;4174904;28;20075;-61
2021/01/21 18:03:29;;;;;;;0.45;0.00;;;;;;;;;;4177088;28;20060;-61
2021/01/21 18:05:50;;;;;;;0.20;0.10;;;;;;;;;;4176116;28;20152;-62
2021/01/21 18:08:14;;;;;;;0.30;0.10;;;;;;;;;;4175973;28;20076;-62
2021/01/21 18:10:35;;;;;;;0.85;0.10;;;;;;;;;;4175346;28;20060;-61
2021/01/21 18:12:56;;;;;;;1.45;0.20;;;;;;;;;;4176707;28;20063;-61
2021/01/21 18:15:19;;;;;;;3.20;0.10;;;;;;;;;;4176391;28;20720;-61
2021/01/21 18:17:42;;;;;;;0.55;0.25;;;;;;;;;;4178074;28;20674;-61
2021/01/21 18:20:07;;;;;;;0.50;0.10;;;;;;;;;;4169673;28;20052;-61
2021/01/21 18:22:28;;;;;;;0.40;0.35;;;;;;;;;;4163356;28;20064;-61
2021/01/21 18:24:49;;;;;;;2.63;1.90;;;;;;;;;;4171953;28;20138;-61
2021/01/21 18:27:10;;;;;;;5.88;0.30;;;;;;;;;;4179319;28;20083;-63
2021/01/21 18:29:31;;;;;;;0.82;0.10;;;;;;;;;;4163930;28;20111;-60
2021/01/21 18:31:52;;;;;;;1.65;0.10;;;;;;;;;;4177294;28;20067;-63
2021/01/21 18:34:15;;;;;;;1.20;0.35;;;;;;;;;;4179013;28;20059;-60
2021/01/21 18:36:36;;;;;;;0.28;0.17;;;;;;;;;;4179728;28;20690;-65
2021/01/21 18:38:57;;;;;;;0.82;0.45;;;;;;;;;;4178576;28;20063;-59
2021/01/21 18:41:19;;;;;;;0.10;0.10;;;;;;;;;;4176073;28;20048;-62
2021/01/21 18:43:40;;;;;;;0.15;0.10;;;;;;;;;;4175517;28;20099;-62
2021/01/21 18:46:01;;;;;;;;;;;;;;;;;;4175681;28;20111;-67
2021/01/21 18:48:25;;;;;;;0.10;0.10;;;;;;;;;;4176680;28;19931;-62
2021/01/21 18:50:46;;;;;;;0.10;0.10;;;;;;;;;;4174730;28;20052;-61
2021/01/21 18:53:06;;;;;;;1.27;0.10;;;;;;;;;;4177053;28;20107;-61
2021/01/21 18:55:29;;;;;;;1.30;0.10;;;;;;;;;;4178763;28;20079;-64
2021/01/21 18:57:51;;;;;;;0.32;0.13;;;;;;;;;;4177890;28;20052;-64
2021/01/21 19:00:13;;;;;;;0.88;0.10;;;;;;;;;;4176779;28;20522;-64
2021/01/21 19:02:33;;;;;;;0.38;0.28;;;;;;;;;;4163101;28;20145;-63
2021/01/21 19:04:54;;;;;;;0.22;0.10;;;;;;;;;;4163200;28;20604;-64
2021/01/21 19:07:19;;;;;;;0.32;0.10;;;;;;;;;;4162089;28;20104;-63
2021/01/21 19:09:41;;;;;;;0.32;0.32;;;;;;;;;;4162857;28;20068;-63
2021/01/21 19:12:01;;;;;;;0.28;0.13;;;;;;;;;;4162263;28;20068;-64
